sensor_id;sensor_type;location;lat;lon;timestamp;pressure;altitude;pressure_sealevel;temperature;humidity
42003;BME280;27693;50.506;30.832;2023-02-19T00:00:24;98492.28;;;3.93;70.31
42003;BME280;27693;50.506;30.832;2023-02-19T00:01:30;98498.45;;;3.89;69.89
42003;BME280;27693;50.506;30.832;2023-02-19T00:02:32;98492.28;;;3.93;70.11
42003;BME280;27693;50.506;30.832;2023-02-19T00:03:40;98489.88;;;3.89;70.05
42003;BME280;27693;50.506;30.832;2023-02-19T00:04:43;98493.41;;;3.86;70.11
42003;BME280;27693;50.506;30.832;2023-02-19T00:05:46;98498.55;;;3.86;69.89
42003;BME280;27693;50.506;30.832;2023-02-19T00:06:50;98492.85;;;3.78;70.27
42003;BME280;27693;50.506;30.832;2023-02-19T00:07:52;98493.71;;;3.78;70.05
42003;BME280;27693;50.506;30.832;2023-02-19T00:08:55;98498.06;;;3.76;69.93
42003;BME280;27693;50.506;30.832;2023-02-19T00:09:57;98515.11;;;3.79;70.24
42003;BME280;27693;50.506;30.832;2023-02-19T00:11:07;98508.52;;;3.72;69.76
42003;BME280;27693;50.506;30.832;2023-02-19T00:12:11;98500.77;;;3.73;70.09
42003;BME280;27693;50.506;30.832;2023-02-19T00:13:13;98497.24;;;3.76;70.29
42003;BME280;27693;50.506;30.832;2023-02-19T00:14:19;98499.58;;;3.82;70.86
42003;BME280;27693;50.506;30.832;2023-02-19T00:15:21;98489.28;;;3.82;70.54
42003;BME280;27693;50.506;30.832;2023-02-19T00:16:34;98497.80;;;3.84;70.35
42003;BME280;27693;50.506;30.832;2023-02-19T00:17:33;98489.12;;;3.87;70.50
42003;BME280;27693;50.506;30.832;2023-02-19T00:18:37;98502.94;;;3.84;70.07
42003;BME280;27693;50.506;30.832;2023-02-19T00:19:39;98495.26;;;3.82;70.19
42003;BME280;27693;50.506;30.832;2023-02-19T00:20:41;98501.59;;;3.74;69.69
42003;BME280;27693;50.506;30.832;2023-02-19T00:21:44;98505.19;;;3.70;69.76
42003;BME280;27693;50.506;30.832;2023-02-19T00:22:46;98496.05;;;3.61;69.97
42003;BME280;27693;50.506;30.832;2023-02-19T00:23:52;98502.78;;;3.65;70.04
42003;BME280;27693;50.506;30.832;2023-02-19T00:24:55;98488.08;;;3.68;70.08
42003;BME280;27693;50.506;30.832;2023-02-19T00:27:18;98494.70;;;3.74;70.06
42003;BME280;27693;50.506;30.832;2023-02-19T00:28:21;98483.89;;;3.66;70.24
42003;BME280;27693;50.506;30.832;2023-02-19T00:29:24;98478.67;;;3.67;70.48
42003;BME280;27693;50.506;30.832;2023-02-19T00:30:27;98493.55;;;3.59;69.98
42003;BME280;27693;50.506;30.832;2023-02-19T00:31:31;98474.32;;;3.70;70.86
42003;BME280;27693;50.506;30.832;2023-02-19T00:32:35;98489.75;;;3.70;70.22
42003;BME280;27693;50.506;30.832;2023-02-19T00:33:37;98488.80;;;3.72;70.58
42003;BME280;27693;50.506;30.832;2023-02-19T00:34:40;98483.82;;;3.67;69.87
42003;BME280;27693;50.506;30.832;2023-02-19T00:35:42;98493.22;;;3.68;70.15
42003;BME280;27693;50.506;30.832;2023-02-19T00:36:45;98482.08;;;3.68;70.21
42003;BME280;27693;50.506;30.832;2023-02-19T00:37:48;98493.31;;;3.65;70.23
42003;BME280;27693;50.506;30.832;2023-02-19T00:38:50;98501.83;;;3.67;70.58
42003;BME280;27693;50.506;30.832;2023-02-19T00:39:53;98499.42;;;3.63;70.04
42003;BME280;27693;50.506;30.832;2023-02-19T00:40:59;98484.31;;;3.54;69.97
42003;BME280;27693;50.506;30.832;2023-02-19T00:42:04;98499.58;;;3.58;70.28
42003;BME280;27693;50.506;30.832;2023-02-19T00:43:06;98508.38;;;3.53;69.78
42003;BME280;27693;50.506;30.832;2023-02-19T00:44:13;98501.56;;;3.51;70.21
42003;BME280;27693;50.506;30.832;2023-02-19T00:45:16;98507.53;;;3.52;70.00
42003;BME280;27693;50.506;30.832;2023-02-19T00:47:25;98504.89;;;3.54;70.27
42003;BME280;27693;50.506;30.832;2023-02-19T00:48:28;98507.66;;;3.49;70.18
42003;BME280;27693;50.506;30.832;2023-02-19T00:49:30;98523.31;;;3.43;70.18
42003;BME280;27693;50.506;30.832;2023-02-19T00:50:33;98513.02;;;3.43;70.13
42003;BME280;27693;50.506;30.832;2023-02-19T00:51:37;98509.44;;;3.47;70.30
42003;BME280;27693;50.506;30.832;2023-02-19T00:52:39;98502.73;;;3.43;70.14
42003;BME280;27693;50.506;30.832;2023-02-19T00:53:42;98502.52;;;3.49;70.44
42003;BME280;27693;50.506;30.832;2023-02-19T00:54:44;98495.02;;;3.43;70.38
42003;BME280;27693;50.506;30.832;2023-02-19T00:55:48;98498.42;;;3.43;70.44
42003;BME280;27693;50.506;30.832;2023-02-19T00:56:50;98490.55;;;3.48;70.67
42003;BME280;27693;50.506;30.832;2023-02-19T00:57:53;98508.64;;;3.45;70.80
42003;BME280;27693;50.506;30.832;2023-02-19T00:58:56;98528.32;;;3.46;70.60
42003;BME280;27693;50.506;30.832;2023-02-19T00:59:59;98502.73;;;3.43;70.38
42003;BME280;27693;50.506;30.832;2023-02-19T01:01:02;98513.02;;;3.43;70.55
42003;BME280;27693;50.506;30.832;2023-02-19T01:02:06;98524.30;;;3.39;70.29
42003;BME280;27693;50.506;30.832;2023-02-19T01:03:09;98525.08;;;3.41;70.48
42003;BME280;27693;50.506;30.832;2023-02-19T01:04:12;98514.96;;;3.36;70.46
42003;BME280;27693;50.506;30.832;2023-02-19T01:05:21;98519.28;;;3.35;70.74
42003;BME280;27693;50.506;30.832;2023-02-19T01:07:38;98512.67;;;3.52;70.84
42003;BME280;27693;50.506;30.832;2023-02-19T01:08:42;98514.16;;;3.34;70.72
42003;BME280;27693;50.506;30.832;2023-02-19T01:09:55;98528.98;;;3.27;70.86
42003;BME280;27693;50.506;30.832;2023-02-19T01:10:58;98508.52;;;3.24;71.05
42003;BME280;27693;50.506;30.832;2023-02-19T01:12:01;98510.77;;;3.33;71.53
42003;BME280;27693;50.506;30.832;2023-02-19T01:13:03;98512.45;;;3.34;71.12
42003;BME280;27693;50.506;30.832;2023-02-19T01:14:06;98511.66;;;3.32;71.03
42003;BME280;27693;50.506;30.832;2023-02-19T01:15:08;98523.84;;;3.27;71.33
42003;BME280;27693;50.506;30.832;2023-02-19T01:16:16;98523.84;;;3.27;71.33
42003;BME280;27693;50.506;30.832;2023-02-19T01:17:17;98521.27;;;3.27;71.01
42003;BME280;27693;50.506;30.832;2023-02-19T01:18:21;98518.48;;;3.33;71.26
42003;BME280;27693;50.506;30.832;2023-02-19T01:19:23;98521.05;;;3.33;71.19
42003;BME280;27693;50.506;30.832;2023-02-19T01:20:26;98517.53;;;3.36;71.29
42003;BME280;27693;50.506;30.832;2023-02-19T01:21:31;98523.63;;;3.33;71.24
42003;BME280;27693;50.506;30.832;2023-02-19T01:22:33;98525.08;;;3.41;71.39
42003;BME280;27693;50.506;30.832;2023-02-19T01:23:35;98519.38;;;3.32;70.95
42003;BME280;27693;50.506;30.832;2023-02-19T01:24:44;98525.41;;;3.31;71.10
42003;BME280;27693;50.506;30.832;2023-02-19T01:25:46;98516.80;;;3.32;71.43
42003;BME280;27693;50.506;30.832;2023-02-19T01:26:58;98508.99;;;3.35;71.60
42003;BME280;27693;50.506;30.832;2023-02-19T01:28:00;98515.02;;;3.34;71.50
42003;BME280;27693;50.506;30.832;2023-02-19T01:29:03;98520.39;;;3.28;71.18
42003;BME280;27693;50.506;30.832;2023-02-19T01:30:08;98511.21;;;3.21;71.36
42003;BME280;27693;50.506;30.832;2023-02-19T01:31:14;98514.52;;;3.25;71.48
42003;BME280;27693;50.506;30.832;2023-02-19T01:32:17;98515.98;;;3.32;72.01
42003;BME280;27693;50.506;30.832;2023-02-19T01:33:21;98515.63;;;3.41;72.07
42003;BME280;27693;50.506;30.832;2023-02-19T01:34:23;98515.63;;;3.41;72.07
42003;BME280;27693;50.506;30.832;2023-02-19T01:35:28;98519.05;;;3.42;71.71
42003;BME280;27693;50.506;30.832;2023-02-19T01:36:32;98532.06;;;3.37;71.33
42003;BME280;27693;50.506;30.832;2023-02-19T01:37:35;98530.55;;;3.31;70.92
42003;BME280;27693;50.506;30.832;2023-02-19T01:38:39;98525.53;;;3.28;70.90
42003;BME280;27693;50.506;30.832;2023-02-19T01:39:42;98524.64;;;3.29;70.97
42003;BME280;27693;50.506;30.832;2023-02-19T01:40:56;98519.44;;;3.31;71.21
42003;BME280;27693;50.506;30.832;2023-02-19T01:41:59;98522.77;;;3.33;71.46
42003;BME280;27693;50.506;30.832;2023-02-19T01:43:02;98526.77;;;3.42;71.62
42003;BME280;27693;50.506;30.832;2023-02-19T01:45:31;98522.36;;;3.45;71.21
42003;BME280;27693;50.506;30.832;2023-02-19T01:46:37;98527.50;;;3.45;71.26
42003;BME280;27693;50.506;30.832;2023-02-19T01:47:40;98528.45;;;3.43;71.21
42003;BME280;27693;50.506;30.832;2023-02-19T01:48:42;98528.77;;;3.33;70.88
42003;BME280;27693;50.506;30.832;2023-02-19T01:49:48;98532.34;;;3.29;70.58
42003;BME280;27693;50.506;30.832;2023-02-19T01:51:06;98531.77;;;3.21;70.78
42003;BME280;27693;50.506;30.832;2023-02-19T01:52:21;98527.30;;;3.26;71.33
42003;BME280;27693;50.506;30.832;2023-02-19T01:53:22;98531.21;;;3.36;71.45
42003;BME280;27693;50.506;30.832;2023-02-19T01:54:30;98533.69;;;3.40;71.42
42003;BME280;27693;50.506;30.832;2023-02-19T01:55:33;98544.80;;;3.40;71.32
42003;BME280;27693;50.506;30.832;2023-02-19T01:56:41;98541.72;;;3.30;70.99
42003;BME280;27693;50.506;30.832;2023-02-19T01:57:47;98540.16;;;3.26;70.76
42003;BME280;27693;50.506;30.832;2023-02-19T01:58:52;98527.52;;;3.20;70.88
42003;BME280;27693;50.506;30.832;2023-02-19T01:59:57;98540.83;;;3.31;71.14
42003;BME280;27693;50.506;30.832;2023-02-19T02:01:03;98533.91;;;3.33;71.37
42003;BME280;27693;50.506;30.832;2023-02-19T02:02:07;98536.57;;;3.30;71.15
42003;BME280;27693;50.506;30.832;2023-02-19T02:03:11;98536.54;;;3.32;71.21
42003;BME280;27693;50.506;30.832;2023-02-19T02:04:15;98535.53;;;3.36;71.30
42003;BME280;27693;50.506;30.832;2023-02-19T02:05:23;98525.15;;;3.39;70.90
42003;BME280;27693;50.506;30.832;2023-02-19T02:06:34;98524.35;;;3.37;70.92
42003;BME280;27693;50.506;30.832;2023-02-19T02:07:37;98534.58;;;3.39;71.27
42003;BME280;27693;50.506;30.832;2023-02-19T02:09:01;98539.56;;;3.43;71.30
42003;BME280;27693;50.506;30.832;2023-02-19T02:10:23;98549.11;;;3.40;70.74
42003;BME280;27693;50.506;30.832;2023-02-19T02:11:26;98549.78;;;3.45;71.15
42003;BME280;27693;50.506;30.832;2023-02-19T02:12:30;98544.77;;;3.42;70.97
42003;BME280;27693;50.506;30.832;2023-02-19T02:13:34;98551.11;;;3.31;70.62
42003;BME280;27693;50.506;30.832;2023-02-19T02:14:41;98539.27;;;3.27;70.73
42003;BME280;27693;50.506;30.832;2023-02-19T02:17:33;98558.88;;;3.30;71.02
42003;BME280;27693;50.506;30.832;2023-02-19T02:19:16;98568.80;;;3.41;71.30
42003;BME280;27693;50.506;30.832;2023-02-19T02:21:48;98564.84;;;3.30;71.04
42003;BME280;27693;50.506;30.832;2023-02-19T02:27:16;98571.61;;;3.33;71.66
42003;BME280;27693;50.506;30.832;2023-02-19T02:28:27;98583.58;;;3.34;71.13
42003;BME280;27693;50.506;30.832;2023-02-19T02:29:31;98575.19;;;3.29;70.95
42003;BME280;27693;50.506;30.832;2023-02-19T02:30:41;98568.28;;;3.31;71.04
42003;BME280;27693;50.506;30.832;2023-02-19T02:31:53;98568.13;;;3.35;71.29
42003;BME280;27693;50.506;30.832;2023-02-19T02:34:15;98581.95;;;3.31;70.81
42003;BME280;27693;50.506;30.832;2023-02-19T02:35:15;98579.51;;;3.28;70.90
42003;BME280;27693;50.506;30.832;2023-02-19T02:36:25;98572.62;;;3.29;70.95
42003;BME280;27693;50.506;30.832;2023-02-19T02:37:29;98593.19;;;3.29;71.09
42003;BME280;27693;50.506;30.832;2023-02-19T02:38:36;98580.40;;;3.27;70.91
42003;BME280;27693;50.506;30.832;2023-02-19T02:39:40;98581.28;;;3.26;70.99
42003;BME280;27693;50.506;30.832;2023-02-19T02:40:50;98594.23;;;3.23;71.04
42003;BME280;27693;50.506;30.832;2023-02-19T02:41:57;98594.23;;;3.23;71.18
42003;BME280;27693;50.506;30.832;2023-02-19T02:43:28;98584.31;;;3.38;71.26
42003;BME280;27693;50.506;30.832;2023-02-19T02:44:40;98580.27;;;3.30;71.30
42003;BME280;27693;50.506;30.832;2023-02-19T02:45:47;98579.51;;;3.28;71.52
42003;BME280;27693;50.506;30.832;2023-02-19T02:46:54;98576.20;;;3.25;71.57
42003;BME280;27693;50.506;30.832;2023-02-19T02:47:57;98596.03;;;3.21;71.41
42003;BME280;27693;50.506;30.832;2023-02-19T02:49:05;98585.75;;;3.21;71.79
42003;BME280;27693;50.506;30.832;2023-02-19T02:50:18;98585.75;;;3.21;71.70
42003;BME280;27693;50.506;30.832;2023-02-19T02:51:29;98602.00;;;3.22;71.81
42003;BME280;27693;50.506;30.832;2023-02-19T02:52:42;98599.78;;;3.11;72.15
42003;BME280;27693;50.506;30.832;2023-02-19T02:54:10;98589.71;;;3.04;72.13
42003;BME280;27693;50.506;30.832;2023-02-19T02:55:35;98595.44;;;3.13;72.72
42003;BME280;27693;50.506;30.832;2023-02-19T02:56:40;98605.05;;;3.08;72.53
42003;BME280;27693;50.506;30.832;2023-02-19T02:57:44;98589.71;;;3.04;72.46
42003;BME280;27693;50.506;30.832;2023-02-19T02:58:48;98592.96;;;3.10;72.70
42003;BME280;27693;50.506;30.832;2023-02-19T02:59:51;98586.47;;;2.99;72.54
42003;BME280;27693;50.506;30.832;2023-02-19T03:01:00;98600.28;;;2.95;72.82
42003;BME280;27693;50.506;30.832;2023-02-19T03:02:24;98597.48;;;3.03;73.04
42003;BME280;27693;50.506;30.832;2023-02-19T03:03:31;98591.31;;;3.09;73.41
42003;BME280;27693;50.506;30.832;2023-02-19T03:04:51;98602.47;;;3.08;73.33
42003;BME280;27693;50.506;30.832;2023-02-19T03:06:15;98610.56;;;2.95;72.81
42003;BME280;27693;50.506;30.832;2023-02-19T03:07:19;98609.99;;;2.87;73.09
42003;BME280;27693;50.506;30.832;2023-02-19T03:08:38;98615.70;;;2.95;73.78
42003;BME280;27693;50.506;30.832;2023-02-19T03:09:45;98611.56;;;2.91;73.53
42003;BME280;27693;50.506;30.832;2023-02-19T03:10:58;98616.02;;;2.86;73.48
42003;BME280;27693;50.506;30.832;2023-02-19T03:12:04;98616.81;;;2.88;73.87
42003;BME280;27693;50.506;30.832;2023-02-19T03:13:34;98619.38;;;2.88;73.72
42003;BME280;27693;50.506;30.832;2023-02-19T03:15:00;98636.65;;;2.83;73.42
42003;BME280;27693;50.506;30.832;2023-02-19T03:16:25;98623.78;;;2.84;73.71
42003;BME280;27693;50.506;30.832;2023-02-19T03:17:52;98621.95;;;2.88;74.12
42003;BME280;27693;50.506;30.832;2023-02-19T03:19:16;98609.11;;;2.88;74.19
42003;BME280;27693;50.506;30.832;2023-02-19T03:20:23;98617.59;;;2.90;74.10
42003;BME280;27693;50.506;30.832;2023-02-19T03:21:27;98641.50;;;2.92;74.11
42003;BME280;27693;50.506;30.832;2023-02-19T03:22:32;98620.41;;;2.82;73.96
42003;BME280;27693;50.506;30.832;2023-02-19T03:23:36;98615.22;;;2.84;74.02
42003;BME280;27693;50.506;30.832;2023-02-19T03:25:07;98615.90;;;2.89;74.43
42003;BME280;27693;50.506;30.832;2023-02-19T03:26:31;98618.58;;;2.86;74.29
42003;BME280;27693;50.506;30.832;2023-02-19T03:27:36;98622.13;;;2.82;74.58
42003;BME280;27693;50.506;30.832;2023-02-19T03:28:41;98627.38;;;2.79;74.54
42003;BME280;27693;50.506;30.832;2023-02-19T03:30:09;98620.41;;;2.82;74.86
42003;BME280;27693;50.506;30.832;2023-02-19T03:31:16;98624.80;;;2.79;74.72
42003;BME280;27693;50.506;30.832;2023-02-19T03:32:25;98629.33;;;2.70;74.91
42003;BME280;27693;50.506;30.832;2023-02-19T03:33:31;98615.50;;;2.75;75.28
42003;BME280;27693;50.506;30.832;2023-02-19T03:34:36;98622.30;;;2.77;75.41
42003;BME280;27693;50.506;30.832;2023-02-19T03:36:01;98630.13;;;2.73;75.49
42003;BME280;27693;50.506;30.832;2023-02-19T03:37:14;98628.34;;;2.75;75.44
42003;BME280;27693;50.506;30.832;2023-02-19T03:38:16;98630.02;;;2.76;75.65
42003;BME280;27693;50.506;30.832;2023-02-19T03:39:21;98625.05;;;2.71;75.46
42003;BME280;27693;50.506;30.832;2023-02-19T03:40:28;98631.82;;;2.74;75.82
42003;BME280;27693;50.506;30.832;2023-02-19T03:41:35;98624.31;;;2.67;75.57
42003;BME280;27693;50.506;30.832;2023-02-19T03:43:56;98622.66;;;2.65;75.67
42003;BME280;27693;50.506;30.832;2023-02-19T03:46:16;98635.47;;;2.66;75.67
42003;BME280;27693;50.506;30.832;2023-02-19T03:47:32;98649.27;;;2.62;75.70
42003;BME280;27693;50.506;30.832;2023-02-19T03:48:37;98645.07;;;2.60;75.71
42003;BME280;27693;50.506;30.832;2023-02-19T03:50:05;98652.89;;;2.57;75.63
42003;BME280;27693;50.506;30.832;2023-02-19T03:55:07;98655.27;;;2.63;76.17
42003;BME280;27693;50.506;30.832;2023-02-19T03:56:37;98668.13;;;2.61;75.89
42003;BME280;27693;50.506;30.832;2023-02-19T03:58:59;98661.41;;;2.57;75.34
42003;BME280;27693;50.506;30.832;2023-02-19T04:00:05;98659.86;;;2.51;75.22
42003;BME280;27693;50.506;30.832;2023-02-19T04:01:16;98674.39;;;2.52;75.42
42003;BME280;27693;50.506;30.832;2023-02-19T04:05:55;98651.70;;;2.67;75.29
42003;BME280;27693;50.506;30.832;2023-02-19T04:06:16;98659.03;;;2.51;75.13
42003;BME280;27693;50.506;30.832;2023-02-19T04:07:21;98659.84;;;2.53;75.46
42003;BME280;27693;50.506;30.832;2023-02-19T04:08:24;98669.36;;;2.49;75.27
42003;BME280;27693;50.506;30.832;2023-02-19T04:10:45;98680.56;;;2.47;75.21
42003;BME280;27693;50.506;30.832;2023-02-19T04:11:49;98662.75;;;2.40;75.29
42003;BME280;27693;50.506;30.832;2023-02-19T04:13:03;98652.45;;;2.42;75.27
42003;BME280;27693;50.506;30.832;2023-02-19T04:14:15;98658.42;;;2.43;75.14
42003;BME280;27693;50.506;30.832;2023-02-19T04:15:20;98662.48;;;2.50;75.65
42003;BME280;27693;50.506;30.832;2023-02-19T04:16:26;98659.41;;;2.38;75.36
42003;BME280;27693;50.506;30.832;2023-02-19T04:17:45;98653.39;;;2.39;75.46
42003;BME280;27693;50.506;30.832;2023-02-19T04:18:48;98665.16;;;2.47;75.59
42003;BME280;27693;50.506;30.832;2023-02-19T04:19:52;98668.61;;;2.46;75.60
42003;BME280;27693;50.506;30.832;2023-02-19T04:20:56;98667.05;;;2.40;75.64
42003;BME280;27693;50.506;30.832;2023-02-19T04:22:01;98670.73;;;2.31;75.96
42003;BME280;27693;50.506;30.832;2023-02-19T04:23:05;98659.66;;;2.29;76.24
42003;BME280;27693;50.506;30.832;2023-02-19T04:24:13;98652.84;;;2.28;76.52
42003;BME280;27693;50.506;30.832;2023-02-19T04:25:15;98656.16;;;2.32;76.65
42003;BME280;27693;50.506;30.832;2023-02-19T04:26:19;98656.86;;;2.37;76.80
42003;BME280;27693;50.506;30.832;2023-02-19T04:27:23;98656.84;;;2.38;76.99
42003;BME280;27693;50.506;30.832;2023-02-19T04:28:27;98655.05;;;2.40;77.08
42003;BME280;27693;50.506;30.832;2023-02-19T04:29:30;98658.34;;;2.46;77.66
42003;BME280;27693;50.506;30.832;2023-02-19T04:30:33;98660.10;;;2.44;77.27
42003;BME280;27693;50.506;30.832;2023-02-19T04:31:36;98659.35;;;2.40;76.88
42003;BME280;27693;50.506;30.832;2023-02-19T04:32:39;98654.09;;;2.45;77.17
42003;BME280;27693;50.506;30.832;2023-02-19T04:33:42;98661.78;;;2.45;77.20
42003;BME280;27693;50.506;30.832;2023-02-19T04:34:44;98666.23;;;2.39;76.98
42003;BME280;27693;50.506;30.832;2023-02-19T04:35:48;98666.36;;;2.35;77.12
42003;BME280;27693;50.506;30.832;2023-02-19T04:36:50;98674.11;;;2.33;76.95
42003;BME280;27693;50.506;30.832;2023-02-19T04:37:52;98672.31;;;2.35;77.28
42003;BME280;27693;50.506;30.832;2023-02-19T04:38:55;98668.87;;;2.36;77.23
42003;BME280;27693;50.506;30.832;2023-02-19T04:39:58;98678.95;;;2.43;77.56
42003;BME280;27693;50.506;30.832;2023-02-19T04:41:01;98666.92;;;2.45;77.52
42003;BME280;27693;50.506;30.832;2023-02-19T04:42:04;98675.06;;;2.29;77.00
42003;BME280;27693;50.506;30.832;2023-02-19T04:43:07;98681.18;;;2.25;77.04
42003;BME280;27693;50.506;30.832;2023-02-19T04:44:09;98666.72;;;2.22;77.29
42003;BME280;27693;50.506;30.832;2023-02-19T04:45:14;98674.26;;;2.27;77.52
42003;BME280;27693;50.506;30.832;2023-02-19T04:46:17;98682.77;;;2.29;77.74
42003;BME280;27693;50.506;30.832;2023-02-19T04:47:20;98687.72;;;2.35;77.79
42003;BME280;27693;50.506;30.832;2023-02-19T04:48:22;98679.19;;;2.35;77.86
42003;BME280;27693;50.506;30.832;2023-02-19T04:49:24;98691.52;;;2.22;77.30
42003;BME280;27693;50.506;30.832;2023-02-19T04:50:28;98684.58;;;2.26;77.60
42003;BME280;27693;50.506;30.832;2023-02-19T04:51:30;98692.27;;;2.26;77.40
42003;BME280;27693;50.506;30.832;2023-02-19T04:52:33;98690.59;;;2.24;77.72
42003;BME280;27693;50.506;30.832;2023-02-19T04:53:36;98691.34;;;2.28;77.81
42003;BME280;27693;50.506;30.832;2023-02-19T04:54:40;98688.77;;;2.28;77.59
42003;BME280;27693;50.506;30.832;2023-02-19T04:55:43;98691.80;;;2.13;77.02
42003;BME280;27693;50.506;30.832;2023-02-19T04:56:45;98689.94;;;2.18;77.20
42003;BME280;27693;50.506;30.832;2023-02-19T04:57:48;98705.68;;;2.05;76.82
42003;BME280;27693;50.506;30.832;2023-02-19T04:58:51;98694.50;;;2.06;77.03
42003;BME280;27693;50.506;30.832;2023-02-19T04:59:53;98714.08;;;2.11;76.87
42003;BME280;27693;50.506;30.832;2023-02-19T05:00:56;98714.25;;;2.04;76.74
42003;BME280;27693;50.506;30.832;2023-02-19T05:01:58;98715.13;;;2.03;76.62
42003;BME280;27693;50.506;30.832;2023-02-19T05:03:01;98708.20;;;2.07;76.40
42003;BME280;27693;50.506;30.832;2023-02-19T05:04:03;98709.95;;;2.05;76.22
42003;BME280;27693;50.506;30.832;2023-02-19T05:05:06;98697.17;;;2.03;76.48
42003;BME280;27693;50.506;30.832;2023-02-19T05:06:11;98717.59;;;2.06;76.36
42003;BME280;27693;50.506;30.832;2023-02-19T05:07:15;98715.25;;;1.99;76.30
42003;BME280;27693;50.506;30.832;2023-02-19T05:08:18;98714.48;;;1.95;76.27
42003;BME280;27693;50.506;30.832;2023-02-19T05:09:20;98715.25;;;1.99;76.33
42003;BME280;27693;50.506;30.832;2023-02-19T05:10:23;98709.31;;;1.97;76.03
42003;BME280;27693;50.506;30.832;2023-02-19T05:11:26;98708.95;;;2.11;76.60
42003;BME280;27693;50.506;30.832;2023-02-19T05:12:29;98718.28;;;2.13;76.51
42003;BME280;27693;50.506;30.832;2023-02-19T05:13:33;98709.76;;;2.13;76.32
42003;BME280;27693;50.506;30.832;2023-02-19T05:14:36;98720.05;;;2.11;76.62
42003;BME280;27693;50.506;30.832;2023-02-19T05:15:38;98719.21;;;2.11;77.17
42003;BME280;27693;50.506;30.832;2023-02-19T05:16:41;98723.48;;;2.10;77.19
42003;BME280;27693;50.506;30.832;2023-02-19T05:17:43;98719.11;;;2.14;77.30
42003;BME280;27693;50.506;30.832;2023-02-19T05:18:47;98724.24;;;2.14;77.34
42003;BME280;27693;50.506;30.832;2023-02-19T05:19:50;98730.11;;;2.19;77.54
42003;BME280;27693;50.506;30.832;2023-02-19T05:20:53;98726.62;;;2.21;77.59
42003;BME280;27693;50.506;30.832;2023-02-19T05:21:55;98730.02;;;2.22;77.52
42003;BME280;27693;50.506;30.832;2023-02-19T05:22:58;98735.95;;;2.24;77.56
42003;BME280;27693;50.506;30.832;2023-02-19T05:24:01;98729.06;;;2.26;77.52
42003;BME280;27693;50.506;30.832;2023-02-19T05:25:04;98736.78;;;2.24;77.42
42003;BME280;27693;50.506;30.832;2023-02-19T05:26:18;98733.34;;;2.26;77.49
42003;BME280;27693;50.506;30.832;2023-02-19T05:27:21;98737.64;;;2.25;77.88
42003;BME280;27693;50.506;30.832;2023-02-19T05:28:24;98733.46;;;2.21;78.62
42003;BME280;27693;50.506;30.832;2023-02-19T05:29:30;98729.31;;;2.17;78.72
42003;BME280;27693;50.506;30.832;2023-02-19T05:30:34;98738.64;;;2.19;79.01
42003;BME280;27693;50.506;30.832;2023-02-19T05:31:37;98735.20;;;2.20;78.85
42003;BME280;27693;50.506;30.832;2023-02-19T05:32:40;98737.81;;;2.19;78.99
42003;BME280;27693;50.506;30.832;2023-02-19T05:33:43;98730.06;;;2.20;79.03
42003;BME280;27693;50.506;30.832;2023-02-19T05:34:50;98736.02;;;2.21;79.02
42003;BME280;27693;50.506;30.832;2023-02-19T05:35:53;98731.02;;;2.16;79.24
42003;BME280;27693;50.506;30.832;2023-02-19T05:36:57;98742.95;;;2.19;79.36
42003;BME280;27693;50.506;30.832;2023-02-19T05:37:59;98736.53;;;2.02;79.04
42003;BME280;27693;50.506;30.832;2023-02-19T05:39:02;98730.36;;;2.10;79.62
42003;BME280;27693;50.506;30.832;2023-02-19T05:40:08;98744.77;;;2.14;79.79
42003;BME280;27693;50.506;30.832;2023-02-19T05:41:14;98732.85;;;2.13;79.49
42003;BME280;27693;50.506;30.832;2023-02-19T05:42:16;98730.47;;;2.05;79.32
42003;BME280;27693;50.506;30.832;2023-02-19T05:43:24;98739.81;;;2.07;79.53
42003;BME280;27693;50.506;30.832;2023-02-19T05:44:29;98731.35;;;2.04;79.16
42003;BME280;27693;50.506;30.832;2023-02-19T05:45:32;98738.34;;;1.99;79.10
42003;BME280;27693;50.506;30.832;2023-02-19T05:46:35;98737.23;;;2.09;79.79
42003;BME280;27693;50.506;30.832;2023-02-19T05:47:37;98737.23;;;2.09;79.79
42003;BME280;27693;50.506;30.832;2023-02-19T05:48:40;98743.14;;;2.11;79.45
42003;BME280;27693;50.506;30.832;2023-02-19T05:49:42;98738.05;;;2.10;79.13
42003;BME280;27693;50.506;30.832;2023-02-19T05:50:44;98750.00;;;2.11;78.86
42003;BME280;27693;50.506;30.832;2023-02-19T05:51:49;98740.91;;;1.99;78.37
42003;BME280;27693;50.506;30.832;2023-02-19T05:52:53;98743.35;;;2.03;78.50
42003;BME280;27693;50.506;30.832;2023-02-19T05:53:56;98748.39;;;2.06;78.56
42003;BME280;27693;50.506;30.832;2023-02-19T05:54:58;98746.80;;;2.02;78.23
42003;BME280;27693;50.506;30.832;2023-02-19T05:56:00;98746.73;;;2.05;78.46
42003;BME280;27693;50.506;30.832;2023-02-19T05:57:03;98750.23;;;2.01;78.03
42003;BME280;27693;50.506;30.832;2023-02-19T05:58:06;98744.39;;;1.96;77.80
42003;BME280;27693;50.506;30.832;2023-02-19T05:59:17;98750.56;;;1.89;77.69
42003;BME280;27693;50.506;30.832;2023-02-19T06:00:21;98759.02;;;1.93;77.91
42003;BME280;27693;50.506;30.832;2023-02-19T06:01:26;98754.61;;;1.98;77.83
42003;BME280;27693;50.506;30.832;2023-02-19T06:02:29;98745.04;;;2.04;78.03
42003;BME280;27693;50.506;30.832;2023-02-19T06:03:31;98748.48;;;2.03;77.85
42003;BME280;27693;50.506;30.832;2023-02-19T06:04:35;98754.44;;;2.04;77.54
42003;BME280;27693;50.506;30.832;2023-02-19T06:05:37;98760.44;;;2.04;77.10
42003;BME280;27693;50.506;30.832;2023-02-19T06:06:42;98757.28;;;1.93;76.96
42003;BME280;27693;50.506;30.832;2023-02-19T06:07:45;98758.05;;;1.97;77.21
42003;BME280;27693;50.506;30.832;2023-02-19T06:08:49;98759.67;;;2.01;77.10
42003;BME280;27693;50.506;30.832;2023-02-19T06:09:51;98763.12;;;2.00;77.15
42003;BME280;27693;50.506;30.832;2023-02-19T06:10:54;98764.82;;;1.99;77.32
42003;BME280;27693;50.506;30.832;2023-02-19T06:11:57;98754.66;;;1.96;77.01
42003;BME280;27693;50.506;30.832;2023-02-19T06:12:59;98762.12;;;2.05;77.61
42003;BME280;27693;50.506;30.832;2023-02-19T06:14:03;98758.64;;;2.06;77.34
42003;BME280;27693;50.506;30.832;2023-02-19T06:15:06;98756.02;;;2.10;77.34